Time,TemperatureF,DewpointF,PressureIn,WindDirection,WindDirectionDegrees,WindSpeedMPH,WindSpeedGustMPH,Humidity,HourlyPrecipIn,Conditions,Clouds,dailyrainin,SoftwareType,DateUTC
2013-09-24 00:02:00,31.0,27.0,29.83,South,183,0.0,0.0,86,0.00,,,0.08,,2013-09-24 08:02:00,
2013-09-24 00:11:00,31.0,27.0,29.83,South,183,0.0,0.0,86,0.00,,,0.08,,2013-09-24 08:11:00,
2013-09-24 00:22:00,32.0,29.0,29.83,South,183,0.0,0.0,87,0.00,,,0.08,,2013-09-24 08:22:00,
2013-09-24 00:32:00,32.0,29.0,29.83,South,183,0.0,0.0,87,0.00,,,0.08,,2013-09-24 08:32:00,
2013-09-24 00:42:00,32.0,29.0,29.83,South,183,0.0,0.0,87,0.00,,,0.08,,2013-09-24 08:42:00,
2013-09-24 00:52:00,31.0,27.0,29.84,South,183,0.0,0.0,86,0.00,,,0.08,,2013-09-24 08:52:00,
2013-09-24 01:01:00,31.0,27.0,29.84,South,183,0.0,0.0,86,0.00,,,0.08,,2013-09-24 09:01:00,
2013-09-24 01:11:00,31.0,27.0,29.84,South,183,0.0,0.0,86,0.00,,,0.08,,2013-09-24 09:11:00,
2013-09-24 01:21:00,30.0,27.0,29.85,South,183,0.0,0.0,87,0.00,,,0.08,,2013-09-24 09:21:00,
2013-09-24 01:33:00,30.0,27.0,29.85,South,183,0.0,0.0,87,0.00,,,0.08,,2013-09-24 09:33:00,
2013-09-24 01:43:00,30.0,27.0,29.85,South,183,0.0,0.0,87,0.00,,,0.08,,2013-09-24 09:43:00,
2013-09-24 01:53:00,30.0,27.0,29.86,South,183,0.0,0.0,88,0.00,,,0.08,,2013-09-24 09:53:00,
2013-09-24 02:02:00,30.0,27.0,29.86,South,183,0.0,0.0,88,0.00,,,0.08,,2013-09-24 10:02:00,
2013-09-24 02:13:00,30.0,27.0,29.86,South,183,0.0,0.0,88,0.00,,,0.08,,2013-09-24 10:13:00,
2013-09-24 02:23:00,31.0,28.0,29.87,South,183,0.0,0.0,88,0.00,,,0.08,,2013-09-24 10:23:00,
2013-09-24 02:33:00,31.0,28.0,29.87,South,183,0.0,0.0,88,0.00,,,0.08,,2013-09-24 10:33:00,
2013-09-24 02:42:00,31.0,28.0,29.87,South,183,0.0,0.0,88,0.00,,,0.08,,2013-09-24 10:42:00,
2013-09-24 02:53:00,31.0,27.0,29.88,South,183,0.0,0.0,85,0.00,,,0.08,,2013-09-24 10:53:00,
2013-09-24 03:03:00,31.0,27.0,29.88,South,183,0.0,0.0,85,0.00,,,0.08,,2013-09-24 11:03:00,
2013-09-24 03:11:00,31.0,27.0,29.88,South,183,0.0,0.0,85,0.00,,,0.08,,2013-09-24 11:11:00,
2013-09-24 03:22:00,31.0,27.0,29.89,South,183,0.0,0.0,85,0.00,,,0.08,,2013-09-24 11:22:00,
2013-09-24 03:33:00,31.0,27.0,29.89,South,183,0.0,0.0,85,0.00,,,0.08,,2013-09-24 11:33:00,
2013-09-24 03:52:00,31.0,27.0,29.90,South,183,0.0,0.0,84,0.00,,,0.08,,2013-09-24 11:52:00,
2013-09-24 04:01:00,31.0,27.0,29.90,South,183,0.0,0.0,84,0.00,,,0.08,,2013-09-24 12:01:00,
2013-09-24 04:12:00,31.0,27.0,29.90,South,183,0.0,0.0,84,0.00,,,0.08,,2013-09-24 12:12:00,
2013-09-24 04:21:00,31.0,26.0,29.91,South,183,0.0,0.0,81,0.00,,,0.08,,2013-09-24 12:21:00,
2013-09-24 04:32:00,31.0,26.0,29.91,South,183,0.0,0.0,81,0.00,,,0.08,,2013-09-24 12:32:00,
2013-09-24 04:42:00,31.0,26.0,29.91,South,183,0.0,0.0,81,0.00,,,0.08,,2013-09-24 12:42:00,
2013-09-24 04:52:00,31.0,26.0,29.92,South,183,0.0,0.0,83,0.00,,,0.08,,2013-09-24 12:52:00,
2013-09-24 05:11:00,31.0,26.0,29.92,South,183,0.0,0.0,83,0.00,,,0.08,,2013-09-24 13:11:00,
2013-09-24 05:21:00,31.0,27.0,29.92,South,183,0.0,0.0,84,0.00,,,0.08,,2013-09-24 13:21:00,
2013-09-24 05:32:00,31.0,27.0,29.92,South,183,0.0,0.0,84,0.00,,,0.08,,2013-09-24 13:32:00,
2013-09-24 05:42:00,31.0,27.0,29.92,South,183,0.0,0.0,84,0.00,,,0.08,,2013-09-24 13:42:00,
2013-09-24 05:52:00,30.0,25.0,29.93,South,183,0.0,0.0,83,0.00,,,0.08,,2013-09-24 13:52:00,
2013-09-24 06:02:00,30.0,25.0,29.93,South,183,0.0,0.0,83,0.00,,,0.08,,2013-09-24 14:02:00,
2013-09-24 06:12:00,30.0,25.0,29.93,South,183,0.0,0.0,83,0.00,,,0.08,,2013-09-24 14:12:00,
2013-09-24 06:21:00,30.0,26.0,29.93,South,183,0.0,1.0,84,0.00,,,0.08,,2013-09-24 14:21:00,
2013-09-24 06:32:00,30.0,26.0,29.93,South,183,0.0,1.0,84,0.00,,,0.08,,2013-09-24 14:32:00,
2013-09-24 06:42:00,30.0,26.0,29.93,South,183,0.0,1.0,84,0.00,,,0.08,,2013-09-24 14:42:00,
2013-09-24 06:52:00,30.0,26.0,29.94,South,183,0.0,1.0,86,0.00,,,0.08,,2013-09-24 14:52:00,
2013-09-24 07:01:00,30.0,26.0,29.94,South,183,0.0,1.0,86,0.00,,,0.08,,2013-09-24 15:01:00,
2013-09-24 07:11:00,30.0,26.0,29.94,South,183,0.0,1.0,86,0.00,,,0.08,,2013-09-24 15:11:00,
2013-09-24 07:22:00,29.0,25.0,29.95,South,183,0.0,0.0,86,0.00,,,0.08,,2013-09-24 15:22:00,
2013-09-24 07:33:00,29.0,25.0,29.95,South,183,0.0,0.0,86,0.00,,,0.08,,2013-09-24 15:33:00,
2013-09-24 07:43:00,29.0,25.0,29.95,South,183,0.0,0.0,86,0.00,,,0.08,,2013-09-24 15:43:00,
2013-09-24 07:53:00,28.0,24.0,29.96,South,183,0.0,0.0,86,0.00,,,0.08,,2013-09-24 15:53:00,
2013-09-24 08:03:00,28.0,24.0,29.96,South,183,0.0,0.0,86,0.00,,,0.08,,2013-09-24 16:03:00,
2013-09-24 08:13:00,28.0,24.0,29.96,South,183,0.0,0.0,86,0.00,,,0.08,,2013-09-24 16:13:00,
2013-09-24 08:23:00,27.0,24.0,29.96,South,183,0.0,0.0,87,0.00,,,0.08,,2013-09-24 16:23:00,
2013-09-24 08:33:00,27.0,24.0,29.96,South,183,0.0,0.0,87,0.00,,,0.08,,2013-09-24 16:33:00,
2013-09-24 08:43:00,27.0,24.0,29.96,South,183,0.0,0.0,87,0.00,,,0.08,,2013-09-24 16:43:00,
2013-09-24 08:53:00,27.0,24.0,29.98,South,183,0.0,0.0,88,0.00,,,0.08,,2013-09-24 16:53:00,
2013-09-24 09:02:00,27.0,24.0,29.98,South,183,0.0,0.0,88,0.00,,,0.08,,2013-09-24 17:02:00,
2013-09-24 09:13:00,27.0,24.0,29.98,South,183,0.0,0.0,88,0.00,,,0.08,,2013-09-24 17:13:00,
2013-09-24 09:23:00,28.0,25.0,29.98,South,183,0.0,1.0,87,0.00,,,0.08,,2013-09-24 17:23:00,
2013-09-24 09:33:00,28.0,25.0,29.98,South,183,0.0,1.0,87,0.00,,,0.08,,2013-09-24 17:33:00,
2013-09-24 09:43:00,28.0,25.0,29.98,South,183,0.0,1.0,87,0.00,,,0.08,,2013-09-24 17:43:00,
2013-09-24 09:53:00,29.0,26.0,29.98,South,183,0.0,0.0,88,0.00,,,0.08,,2013-09-24 17:53:00,
2013-09-24 10:03:00,29.0,26.0,29.98,South,183,0.0,0.0,88,0.00,,,0.08,,2013-09-24 18:03:00,
2013-09-24 10:12:00,29.0,26.0,29.98,South,183,0.0,0.0,88,0.00,,,0.08,,2013-09-24 18:12:00,
2013-09-24 10:22:00,29.0,26.0,29.98,South,183,0.0,1.0,88,0.00,,,0.08,,2013-09-24 18:22:00,
2013-09-24 10:32:00,29.0,26.0,29.98,South,183,0.0,1.0,88,0.00,,,0.08,,2013-09-24 18:32:00,
2013-09-24 10:42:00,29.0,26.0,29.98,South,183,0.0,1.0,88,0.00,,,0.08,,2013-09-24 18:42:00,
2013-09-24 10:52:00,30.0,27.0,29.98,South,183,0.0,1.0,88,0.00,,,0.08,,2013-09-24 18:52:00,
2013-09-24 11:01:00,30.0,27.0,29.98,South,183,0.0,1.0,88,0.00,,,0.08,,2013-09-24 19:01:00,
2013-09-24 11:11:00,30.0,27.0,29.98,South,183,0.0,1.0,88,0.00,,,0.08,,2013-09-24 19:11:00,
2013-09-24 11:22:00,32.0,28.0,29.98,South,183,0.0,2.0,85,0.00,,,0.08,,2013-09-24 19:22:00,
2013-09-24 11:32:00,32.0,28.0,29.98,South,183,0.0,2.0,85,0.00,,,0.08,,2013-09-24 19:32:00,
2013-09-24 11:42:00,32.0,28.0,29.98,South,183,0.0,2.0,85,0.00,,,0.08,,2013-09-24 19:42:00,
2013-09-24 11:52:00,33.0,26.0,29.98,South,179,0.0,3.0,76,0.00,,,0.08,,2013-09-24 19:52:00,
2013-09-24 12:02:00,33.0,26.0,29.98,South,179,0.0,3.0,76,0.00,,,0.08,,2013-09-24 20:02:00,
2013-09-24 12:11:00,33.0,26.0,29.98,South,179,0.0,3.0,76,0.00,,,0.08,,2013-09-24 20:11:00,
2013-09-24 12:22:00,35.0,27.0,29.96,SW,225,1.0,2.0,71,0.00,,,0.08,,2013-09-24 20:22:00,
2013-09-24 12:32:00,35.0,27.0,29.96,SW,225,1.0,2.0,71,0.00,,,0.08,,2013-09-24 20:32:00,
2013-09-24 12:42:00,35.0,27.0,29.96,SW,225,1.0,2.0,71,0.00,,,0.08,,2013-09-24 20:42:00,
2013-09-24 12:52:00,36.0,24.0,29.96,SW,215,1.0,3.0,62,0.00,,,0.08,,2013-09-24 20:52:00,
2013-09-24 13:02:00,36.0,24.0,29.96,SW,215,1.0,3.0,62,0.00,,,0.08,,2013-09-24 21:02:00,
2013-09-24 13:12:00,36.0,24.0,29.96,SW,215,1.0,3.0,62,0.00,,,0.08,,2013-09-24 21:12:00,
2013-09-24 13:21:00,37.0,25.0,29.97,South,184,0.0,2.0,62,0.00,,,0.08,,2013-09-24 21:21:00,
2013-09-24 13:33:00,37.0,25.0,29.97,South,184,0.0,2.0,62,0.00,,,0.08,,2013-09-24 21:33:00,
2013-09-24 13:43:00,37.0,25.0,29.97,South,184,0.0,2.0,62,0.00,,,0.08,,2013-09-24 21:43:00,
2013-09-24 13:54:00,39.0,25.0,29.97,ESE,122,2.0,6.0,56,0.00,,,0.08,,2013-09-24 21:54:00,
2013-09-24 14:04:00,39.0,25.0,29.97,ESE,122,2.0,6.0,56,0.00,,,0.08,,2013-09-24 22:04:00,
2013-09-24 14:13:00,39.0,25.0,29.97,ESE,122,2.0,6.0,56,0.00,,,0.08,,2013-09-24 22:13:00,
2013-09-24 14:23:00,40.0,25.0,29.96,SSW,194,0.0,5.0,55,0.00,,,0.08,,2013-09-24 22:23:00,
2013-09-24 14:34:00,40.0,25.0,29.96,SSW,194,0.0,5.0,55,0.00,,,0.08,,2013-09-24 22:34:00,
2013-09-24 14:53:00,40.0,26.0,29.96,SW,219,1.0,4.0,58,0.00,,,0.04,,2013-09-24 22:53:00,
2013-09-24 15:03:00,40.0,26.0,29.96,SW,219,1.0,4.0,58,0.00,,,0.04,,2013-09-24 23:03:00,
2013-09-24 15:13:00,40.0,26.0,29.96,SW,219,1.0,4.0,58,0.00,,,0.04,,2013-09-24 23:13:00,
2013-09-24 15:22:00,41.0,25.0,29.94,SSE,161,1.0,4.0,53,0.00,,,0.04,,2013-09-24 23:22:00,
2013-09-24 15:33:00,41.0,25.0,29.94,SSE,161,1.0,4.0,53,0.00,,,0.04,,2013-09-24 23:33:00,
2013-09-24 15:53:00,41.0,26.0,29.93,SW,214,1.0,4.0,54,0.00,,,0.01,,2013-09-24 23:53:00,
2013-09-24 16:02:00,41.0,26.0,29.93,SW,214,1.0,4.0,54,0.00,,,0.01,,2013-09-25 00:02:00,
2013-09-24 16:12:00,41.0,26.0,29.93,SW,214,1.0,4.0,54,0.00,,,0.01,,2013-09-25 00:12:00,
2013-09-24 16:22:00,41.0,27.0,29.92,SSW,199,1.0,4.0,56,0.00,,,0.01,,2013-09-25 00:22:00,
2013-09-24 16:32:00,41.0,27.0,29.92,SSW,199,1.0,4.0,56,0.00,,,0.01,,2013-09-25 00:32:00,
2013-09-24 16:42:00,41.0,27.0,29.92,SSW,199,1.0,4.0,56,0.00,,,0.01,,2013-09-25 00:42:00,
2013-09-24 16:52:00,41.0,26.0,29.91,West,280,0.0,3.0,55,0.00,,,0.01,,2013-09-25 00:52:00,
2013-09-24 17:02:00,41.0,26.0,29.91,West,280,0.0,3.0,55,0.00,,,0.01,,2013-09-25 01:02:00,
2013-09-24 17:12:00,41.0,26.0,29.91,West,280,0.0,3.0,55,0.00,,,0.01,,2013-09-25 01:12:00,
2013-09-24 17:21:00,42.0,27.0,29.90,SSW,200,0.0,2.0,54,0.00,,,0.01,,2013-09-25 01:21:00,
2013-09-24 17:32:00,42.0,27.0,29.90,SSW,200,0.0,2.0,54,0.00,,,0.01,,2013-09-25 01:32:00,
2013-09-24 17:42:00,42.0,27.0,29.90,SSW,200,0.0,2.0,54,0.00,,,0.01,,2013-09-25 01:42:00,
2013-09-24 17:52:00,41.0,26.0,29.89,SE,146,1.0,5.0,54,0.00,,,0.00,,2013-09-25 01:52:00,
2013-09-24 18:02:00,41.0,26.0,29.89,SE,146,1.0,5.0,54,0.00,,,0.00,,2013-09-25 02:02:00,
2013-09-24 18:11:00,41.0,26.0,29.89,SE,146,1.0,5.0,54,0.00,,,0.00,,2013-09-25 02:11:00,
2013-09-24 18:21:00,41.0,27.0,29.87,SSW,202,0.0,4.0,57,0.00,,,0.00,,2013-09-25 02:21:00,
2013-09-24 18:32:00,41.0,27.0,29.87,SSW,202,0.0,4.0,57,0.00,,,0.00,,2013-09-25 02:32:00,
2013-09-24 18:42:00,41.0,27.0,29.87,SSW,202,0.0,4.0,57,0.00,,,0.00,,2013-09-25 02:42:00,
2013-09-24 18:52:00,39.0,26.0,29.85,SSW,202,0.0,2.0,60,0.00,,,0.00,,2013-09-25 02:52:00,
2013-09-24 19:02:00,39.0,26.0,29.85,SSW,202,0.0,2.0,60,0.00,,,0.00,,2013-09-25 03:02:00,
2013-09-24 19:11:00,39.0,26.0,29.85,SSW,202,0.0,2.0,60,0.00,,,0.00,,2013-09-25 03:11:00,
2013-09-24 19:23:00,37.0,26.0,29.84,SSW,203,0.0,1.0,65,0.00,,,0.00,,2013-09-25 03:23:00,
2013-09-24 19:33:00,37.0,26.0,29.84,SSW,203,0.0,1.0,65,0.00,,,0.00,,2013-09-25 03:33:00,
2013-09-24 19:44:00,37.0,26.0,29.84,SSW,203,0.0,1.0,65,0.00,,,0.00,,2013-09-25 03:44:00,
2013-09-24 19:54:00,35.0,24.0,29.84,SSW,203,0.0,1.0,65,0.00,,,0.00,,2013-09-25 03:54:00,
2013-09-24 20:04:00,35.0,24.0,29.84,SSW,203,0.0,1.0,65,0.00,,,0.00,,2013-09-25 04:04:00,
2013-09-24 20:14:00,35.0,24.0,29.84,SSW,203,0.0,1.0,65,0.00,,,0.00,,2013-09-25 04:14:00,
2013-09-24 20:24:00,34.0,25.0,29.83,SSW,203,0.0,0.0,70,0.00,,,0.00,,2013-09-25 04:24:00,
2013-09-24 20:34:00,34.0,25.0,29.83,SSW,203,0.0,0.0,70,0.00,,,0.00,,2013-09-25 04:34:00,
2013-09-24 20:43:00,34.0,25.0,29.83,SSW,203,0.0,0.0,70,0.00,,,0.00,,2013-09-25 04:43:00,
2013-09-24 20:54:00,33.0,26.0,29.82,SSW,203,0.0,0.0,74,0.00,,,0.00,,2013-09-25 04:54:00,
2013-09-24 21:03:00,33.0,26.0,29.82,SSW,203,0.0,0.0,74,0.00,,,0.00,,2013-09-25 05:03:00,
2013-09-24 21:12:00,33.0,26.0,29.82,SSW,203,0.0,0.0,74,0.00,,,0.00,,2013-09-25 05:12:00,
2013-09-24 21:23:00,32.0,24.0,29.79,SSW,203,0.0,3.0,73,0.00,,,0.00,,2013-09-25 05:23:00,
2013-09-24 21:33:00,32.0,24.0,29.79,SSW,203,0.0,3.0,73,0.00,,,0.00,,2013-09-25 05:33:00,
2013-09-24 21:44:00,32.0,24.0,29.79,SSW,203,0.0,3.0,73,0.00,,,0.00,,2013-09-25 05:44:00,
2013-09-24 21:53:00,32.0,25.0,29.78,SSW,203,0.0,1.0,75,0.00,,,0.00,,2013-09-25 05:53:00,
2013-09-24 22:02:00,32.0,25.0,29.78,SSW,203,0.0,1.0,75,0.00,,,0.00,,2013-09-25 06:02:00,
2013-09-24 22:13:00,32.0,25.0,29.78,SSW,203,0.0,1.0,75,0.00,,,0.00,,2013-09-25 06:13:00,
2013-09-24 22:23:00,33.0,25.0,29.78,SSW,203,0.0,1.0,73,0.00,,,0.00,,2013-09-25 06:23:00,
2013-09-24 22:32:00,33.0,25.0,29.78,SSW,203,0.0,1.0,73,0.00,,,0.00,,2013-09-25 06:32:00,
2013-09-24 22:42:00,33.0,25.0,29.78,SSW,203,0.0,1.0,73,0.00,,,0.00,,2013-09-25 06:42:00,
2013-09-24 22:52:00,33.0,26.0,29.74,SSW,210,0.0,2.0,74,0.00,,,0.00,,2013-09-25 06:52:00,
2013-09-24 23:01:00,33.0,26.0,29.74,SSW,210,0.0,2.0,74,0.00,,,0.00,,2013-09-25 07:01:00,
2013-09-24 23:11:00,33.0,26.0,29.74,SSW,210,0.0,2.0,74,0.00,,,0.00,,2013-09-25 07:11:00,
2013-09-24 23:21:00,35.0,26.0,29.72,SW,217,0.0,4.0,68,0.00,,,0.00,,2013-09-25 07:21:00,
2013-09-24 23:33:00,35.0,26.0,29.72,SW,217,0.0,4.0,68,0.00,,,0.00,,2013-09-25 07:33:00,
2013-09-24 23:42:00,35.0,26.0,29.72,SW,217,0.0,4.0,68,0.00,,,0.00,,2013-09-25 07:42:00,
2013-09-24 23:52:00,37.0,26.0,29.72,WSW,248,0.0,3.0,64,0.00,,,0.00,,2013-09-25 07:52:00,